createdAt,value
2023-05-05T00:01:17.934Z,46.40
2023-05-05T00:03:44.906Z,46.40
2023-05-05T00:06:14.661Z,46.40
2023-05-05T00:08:42.079Z,46.40
2023-05-05T00:11:09.363Z,46.40
2023-05-05T00:13:36.331Z,46.40
2023-05-05T00:16:03.267Z,46.50
2023-05-05T00:18:33.812Z,46.70
2023-05-05T00:21:00.870Z,46.80
2023-05-05T00:23:30.878Z,46.90
2023-05-05T00:25:57.812Z,46.90
2023-05-05T00:28:24.681Z,47.00
2023-05-05T00:30:51.590Z,47.10
2023-05-05T00:33:20.776Z,47.10
2023-05-05T00:35:50.200Z,47.20
2023-05-05T00:38:17.044Z,47.90
2023-05-05T00:40:46.976Z,47.30
2023-05-05T00:43:16.048Z,47.30
2023-05-05T00:45:47.439Z,47.50
2023-05-05T00:48:14.649Z,47.40
2023-05-05T00:50:45.936Z,47.40
2023-05-05T00:53:13.713Z,47.40
2023-05-05T00:55:43.148Z,47.40
2023-05-05T00:58:13.368Z,47.40
2023-05-05T01:00:40.302Z,47.50
2023-05-05T01:03:07.489Z,47.50
2023-05-05T01:06:03.033Z,47.50
2023-05-05T01:08:39.470Z,47.80
2023-05-05T01:11:32.268Z,47.70
2023-05-05T01:14:14.552Z,47.90
2023-05-05T01:17:08.048Z,47.80
2023-05-05T01:19:56.056Z,47.80
2023-05-05T01:22:38.292Z,47.90
2023-05-05T01:25:26.073Z,47.90
2023-05-05T01:28:30.688Z,47.70
2023-05-05T01:31:24.427Z,48.00
2023-05-05T01:34:00.263Z,48.00
2023-05-05T01:36:44.009Z,48.00
2023-05-05T01:39:18.520Z,48.10
2023-05-05T01:41:53.842Z,48.10
2023-05-05T01:44:21.696Z,48.10
2023-05-05T01:46:55.777Z,48.10
2023-05-05T01:49:23.042Z,48.20
2023-05-05T01:51:50.571Z,48.20
2023-05-05T01:54:18.688Z,48.40
2023-05-05T01:56:46.500Z,48.40
2023-05-05T01:59:13.740Z,48.40
2023-05-05T02:01:44.914Z,48.50
2023-05-05T02:04:14.335Z,48.50
2023-05-05T02:06:43.861Z,48.50
2023-05-05T02:09:13.248Z,48.60
2023-05-05T02:11:43.452Z,48.60
2023-05-05T02:14:11.479Z,48.50
2023-05-05T02:16:41.347Z,48.60
2023-05-05T02:19:10.162Z,48.60
2023-05-05T02:21:42.603Z,48.60
2023-05-05T02:24:14.920Z,48.60
2023-05-05T02:26:46.115Z,48.60
2023-05-05T02:29:42.541Z,48.60
2023-05-05T02:32:25.745Z,48.80
2023-05-05T02:34:54.588Z,48.60
2023-05-05T02:37:28.725Z,48.50
2023-05-05T02:40:06.339Z,48.60
2023-05-05T02:42:38.737Z,48.70
2023-05-05T02:45:15.542Z,48.60
2023-05-05T02:47:42.426Z,48.70
2023-05-05T02:50:10.277Z,48.70
2023-05-05T02:52:40.458Z,48.80
2023-05-05T02:55:08.307Z,48.80
2023-05-05T02:57:58.091Z,48.80
2023-05-05T03:00:51.842Z,49.00
2023-05-05T03:03:27.296Z,49.10
2023-05-05T03:06:15.241Z,49.10
2023-05-05T03:08:56.808Z,49.40
2023-05-05T03:11:36.038Z,49.40
2023-05-05T03:14:12.599Z,49.30
2023-05-05T03:16:42.564Z,49.50
2023-05-05T03:19:18.068Z,49.40
2023-05-05T03:21:49.715Z,49.40
2023-05-05T03:24:22.457Z,49.40
2023-05-05T03:26:53.453Z,49.50
2023-05-05T03:29:20.369Z,49.50
2023-05-05T03:31:49.416Z,49.50
2023-05-05T03:34:20.886Z,49.40
2023-05-05T03:36:47.717Z,49.50
2023-05-05T03:39:17.107Z,49.40
2023-05-05T03:41:46.531Z,49.40
2023-05-05T03:44:13.444Z,49.50
2023-05-05T03:46:42.851Z,49.50
2023-05-05T03:49:12.314Z,49.50
2023-05-05T03:51:41.802Z,49.60
2023-05-05T03:54:08.696Z,49.70
2023-05-05T03:56:37.716Z,49.80
2023-05-05T03:59:07.138Z,49.90
2023-05-05T04:01:35.302Z,49.90
2023-05-05T04:04:02.706Z,50.00
2023-05-05T04:06:29.764Z,50.00
2023-05-05T04:08:59.182Z,50.00
2023-05-05T04:11:26.240Z,50.00
2023-05-05T04:13:53.133Z,49.90
2023-05-05T04:16:22.932Z,49.90
2023-05-05T04:18:52.106Z,49.90
2023-05-05T04:21:18.993Z,50.00
2023-05-05T04:23:45.907Z,50.10
2023-05-05T04:26:12.773Z,50.20
2023-05-05T04:28:44.146Z,50.20
2023-05-05T04:31:13.450Z,50.30
2023-05-05T04:33:40.433Z,50.30
2023-05-05T04:36:07.932Z,50.40
2023-05-05T04:38:34.843Z,50.40
2023-05-05T04:41:06.449Z,50.50
2023-05-05T04:43:33.244Z,50.60
2023-05-05T04:46:00.177Z,50.60
2023-05-05T04:48:27.372Z,50.40
2023-05-05T04:50:56.749Z,50.40
2023-05-05T04:53:23.596Z,50.50
2023-05-05T04:55:50.553Z,50.60
2023-05-05T04:58:17.418Z,50.60
2023-05-05T05:00:44.215Z,50.50
2023-05-05T05:03:13.632Z,50.50
2023-05-05T05:05:40.545Z,50.60
2023-05-05T05:08:07.434Z,50.60
2023-05-05T05:10:35.583Z,50.60
2023-05-05T05:13:02.709Z,50.60
2023-05-05T05:15:29.640Z,50.70
2023-05-05T05:18:01.292Z,50.70
2023-05-05T05:20:31.126Z,50.60
2023-05-05T05:22:58.016Z,50.60
2023-05-05T05:25:25.279Z,50.60
2023-05-05T05:28:05.750Z,50.60
2023-05-05T05:30:36.213Z,50.60
2023-05-05T05:33:05.505Z,50.60
2023-05-05T05:35:32.525Z,50.70
2023-05-05T05:38:04.340Z,50.70
2023-05-05T05:40:31.551Z,50.70
2023-05-05T05:42:58.521Z,50.80
2023-05-05T05:45:25.530Z,50.80
2023-05-05T05:47:52.332Z,50.90
2023-05-05T05:50:19.184Z,50.90
2023-05-05T05:52:48.364Z,50.90
2023-05-05T05:55:15.412Z,50.90
2023-05-05T05:57:44.841Z,50.90
2023-05-05T06:00:16.969Z,51.00
2023-05-05T06:02:44.010Z,51.10
2023-05-05T06:05:18.325Z,51.00
2023-05-05T06:07:45.377Z,51.00
2023-05-05T06:10:26.527Z,51.00
2023-05-05T06:12:54.086Z,51.00
2023-05-05T06:15:23.260Z,51.10
2023-05-05T06:17:50.160Z,51.10
2023-05-05T06:20:17.209Z,51.10
2023-05-05T06:22:44.032Z,51.10
2023-05-05T06:25:15.627Z,51.10
2023-05-05T06:27:44.722Z,51.20
2023-05-05T06:30:12.177Z,51.30
2023-05-05T06:32:41.856Z,51.20
2023-05-05T06:35:09.593Z,51.30
2023-05-05T06:37:38.892Z,51.40
2023-05-05T06:40:07.943Z,51.50
2023-05-05T06:42:35.925Z,51.60
2023-05-05T06:45:02.935Z,51.60
2023-05-05T06:47:34.540Z,52.30
2023-05-05T06:50:06.400Z,51.60
2023-05-05T06:52:33.662Z,51.50
2023-05-05T06:55:03.745Z,51.50
2023-05-05T06:57:30.716Z,51.50
2023-05-05T07:00:00.379Z,51.50
2023-05-05T07:02:27.441Z,51.60
2023-05-05T07:04:55.555Z,51.70
2023-05-05T07:07:22.750Z,51.70
2023-05-05T07:09:52.203Z,51.80
2023-05-05T07:12:21.879Z,51.90
2023-05-05T07:14:48.855Z,52.00
2023-05-05T07:17:16.001Z,51.90
2023-05-05T07:19:43.172Z,51.70
2023-05-05T07:22:12.264Z,51.70
2023-05-05T07:24:39.072Z,51.80
2023-05-05T07:27:07.022Z,51.80
2023-05-05T07:29:38.993Z,51.90
2023-05-05T07:32:10.691Z,52.30
2023-05-05T07:34:40.384Z,52.30
2023-05-05T07:37:10.003Z,52.50
2023-05-05T07:39:36.923Z,52.60
2023-05-05T07:42:03.989Z,52.90
2023-05-05T07:44:33.268Z,52.90
2023-05-05T07:47:00.197Z,53.20
2023-05-05T07:49:31.860Z,53.60
2023-05-05T07:52:00.997Z,54.00
2023-05-05T07:54:30.379Z,54.20
2023-05-05T07:57:02.133Z,54.00
2023-05-05T07:59:31.589Z,53.80
2023-05-05T08:02:00.831Z,53.50
2023-05-05T08:04:27.766Z,53.20
2023-05-05T08:06:54.764Z,53.00
2023-05-05T08:09:21.666Z,52.80
2023-05-05T08:11:48.648Z,52.30
2023-05-05T08:14:17.942Z,52.10
2023-05-05T08:16:49.432Z,51.70
2023-05-05T08:19:28.298Z,51.40
2023-05-05T08:22:00.592Z,51.30
2023-05-05T08:24:30.871Z,51.10
2023-05-05T08:26:57.812Z,51.00
2023-05-05T08:29:29.393Z,50.70
2023-05-05T08:31:56.373Z,50.50
2023-05-05T08:34:23.276Z,50.40
2023-05-05T08:36:52.613Z,50.30
2023-05-05T08:39:19.476Z,50.30
2023-05-05T08:41:48.693Z,50.40
2023-05-05T08:44:15.720Z,50.50
2023-05-05T08:46:45.932Z,50.50
2023-05-05T08:49:16.275Z,50.60
2023-05-05T08:51:46.737Z,50.60
2023-05-05T08:54:25.743Z,50.50
2023-05-05T08:56:56.915Z,50.50
2023-05-05T08:59:25.200Z,50.50
2023-05-05T09:01:53.036Z,50.50
2023-05-05T09:04:20.145Z,50.60
2023-05-05T09:06:47.060Z,50.70
2023-05-05T09:09:17.032Z,50.80
2023-05-05T09:11:47.564Z,50.90
2023-05-05T09:14:14.454Z,50.90
2023-05-05T09:16:44.089Z,51.00
2023-05-05T09:19:10.989Z,51.20
2023-05-05T09:21:51.618Z,51.40
2023-05-05T09:24:20.589Z,51.50
2023-05-05T09:26:48.419Z,51.70
2023-05-05T09:29:22.194Z,51.60
2023-05-05T09:32:08.664Z,51.30
2023-05-05T09:34:37.122Z,51.60
2023-05-05T09:37:06.519Z,50.80
2023-05-05T09:39:36.106Z,50.60
2023-05-05T09:42:08.999Z,50.20
2023-05-05T09:44:40.741Z,50.10
2023-05-05T09:47:21.898Z,49.90
2023-05-05T09:49:59.822Z,49.60
2023-05-05T09:52:27.950Z,49.00
2023-05-05T09:54:59.887Z,49.00
2023-05-05T09:57:31.686Z,48.90
2023-05-05T10:00:06.280Z,48.70
2023-05-05T10:02:39.142Z,48.30
2023-05-05T10:05:18.288Z,48.70
2023-05-05T10:07:47.400Z,47.90
2023-05-05T10:10:19.266Z,47.30
2023-05-05T10:12:49.851Z,47.10
2023-05-05T10:15:17.215Z,46.50
2023-05-05T10:20:19.476Z,46.90
2023-05-05T10:22:54.915Z,46.30
2023-05-05T10:25:31.527Z,45.90
2023-05-05T10:28:06.407Z,45.60
2023-05-05T10:30:45.549Z,45.70
2023-05-05T10:33:31.522Z,45.30
2023-05-05T10:36:06.586Z,45.10
2023-05-05T10:38:37.432Z,45.20
2023-05-05T10:41:09.478Z,44.80
2023-05-05T10:43:39.017Z,45.10
2023-05-05T10:46:07.025Z,44.60
2023-05-05T10:49:10.559Z,44.50
2023-05-05T10:52:02.132Z,44.50
2023-05-05T10:54:39.190Z,44.50
2023-05-05T10:57:10.040Z,43.80
2023-05-05T10:59:36.980Z,43.70
2023-05-05T11:02:28.637Z,43.70
2023-05-05T11:05:21.557Z,43.30
2023-05-05T11:07:55.194Z,43.50
2023-05-05T11:10:24.436Z,43.40
2023-05-05T11:13:02.929Z,43.20
2023-05-05T11:15:37.279Z,43.00
2023-05-05T11:18:08.232Z,43.20
2023-05-05T11:20:45.261Z,43.00
2023-05-05T11:23:13.353Z,42.80
2023-05-05T11:25:45.211Z,42.80
2023-05-05T11:28:12.877Z,42.70
2023-05-05T11:30:55.136Z,42.90
2023-05-05T11:33:29.083Z,43.00
2023-05-05T11:35:59.218Z,42.90
2023-05-05T11:39:23.347Z,43.10
2023-05-05T11:42:21.783Z,43.00
2023-05-05T11:44:53.993Z,43.40
2023-05-05T11:47:20.795Z,43.40
2023-05-05T11:49:51.852Z,43.10
2023-05-05T11:52:18.818Z,43.00
2023-05-05T11:54:50.657Z,42.90
2023-05-05T11:57:21.660Z,42.60
2023-05-05T12:00:04.425Z,42.40
2023-05-05T12:02:31.906Z,42.20
2023-05-05T12:05:00.735Z,42.60
2023-05-05T12:07:33.284Z,43.00
2023-05-05T12:10:00.928Z,42.90
2023-05-05T12:12:42.211Z,43.10
2023-05-05T12:15:09.723Z,43.30
2023-05-05T12:17:44.823Z,43.60
2023-05-05T12:20:13.207Z,43.60
2023-05-05T12:22:40.848Z,43.90
2023-05-05T12:25:08.951Z,43.50
2023-05-05T12:27:38.630Z,43.60
2023-05-05T12:30:20.448Z,43.40
2023-05-05T12:32:47.581Z,43.60
2023-05-05T12:35:14.685Z,42.80
2023-05-05T12:37:43.443Z,42.20
2023-05-05T12:40:44.665Z,41.90
2023-05-05T12:43:34.370Z,41.50
2023-05-05T12:46:15.248Z,41.50
2023-05-05T12:48:48.129Z,41.20
2023-05-05T12:51:23.367Z,41.30
2023-05-05T12:54:04.789Z,41.10
2023-05-05T12:56:41.514Z,40.70
2023-05-05T12:59:10.907Z,41.40
2023-05-05T13:02:02.606Z,41.20
2023-05-05T13:04:32.612Z,41.20
2023-05-05T13:07:14.835Z,41.10
2023-05-05T13:09:42.260Z,40.60
2023-05-05T13:12:12.087Z,40.80
2023-05-05T13:14:42.478Z,41.00
2023-05-05T13:17:11.059Z,40.90
2023-05-05T13:19:42.601Z,40.90
2023-05-05T13:22:10.200Z,40.80
2023-05-05T13:24:49.814Z,40.40
2023-05-05T13:27:18.254Z,40.30
2023-05-05T13:29:47.696Z,40.20
2023-05-05T13:32:16.059Z,39.30
2023-05-05T13:34:44.128Z,39.30
2023-05-05T13:37:13.477Z,39.10
2023-05-05T13:39:40.382Z,38.70
2023-05-05T13:42:09.726Z,38.50
2023-05-05T13:44:36.694Z,38.30
2023-05-05T13:47:04.117Z,38.30
2023-05-05T13:49:33.693Z,38.00
2023-05-05T13:52:05.278Z,37.80
2023-05-05T13:54:32.304Z,37.80
2023-05-05T13:57:00.165Z,37.60
2023-05-05T13:59:29.993Z,37.70
2023-05-05T14:01:56.903Z,37.80
2023-05-05T14:04:23.942Z,38.10
2023-05-05T14:06:50.881Z,38.00
2023-05-05T14:09:17.799Z,38.00
2023-05-05T14:11:47.199Z,38.00
2023-05-05T14:14:14.145Z,37.90
2023-05-05T14:16:41.091Z,38.10
2023-05-05T14:19:07.918Z,38.00
2023-05-05T14:21:34.818Z,38.00
2023-05-05T14:24:01.685Z,37.90
2023-05-05T14:26:29.166Z,38.00
2023-05-05T14:28:58.144Z,38.10
2023-05-05T14:31:28.559Z,38.20
2023-05-05T14:33:55.596Z,38.10
2023-05-05T14:36:23.459Z,38.30
2023-05-05T14:38:50.569Z,38.30
2023-05-05T14:41:17.506Z,38.40
2023-05-05T14:43:46.865Z,38.40
2023-05-05T14:46:13.905Z,38.50
2023-05-05T14:48:43.527Z,38.60
2023-05-05T14:51:10.600Z,38.80
2023-05-05T14:53:37.536Z,39.00
2023-05-05T14:56:04.710Z,38.90
2023-05-05T14:58:33.912Z,38.90
2023-05-05T15:01:03.133Z,38.90
2023-05-05T15:03:30.153Z,38.90
2023-05-05T15:05:57.141Z,38.90
2023-05-05T15:08:24.451Z,38.90
2023-05-05T15:10:51.465Z,38.90
2023-05-05T15:13:18.779Z,38.90
2023-05-05T15:15:50.589Z,39.00
2023-05-05T15:18:20.066Z,38.90
2023-05-05T15:20:46.919Z,39.00
2023-05-05T15:23:13.788Z,39.20
2023-05-05T15:25:45.498Z,39.10
2023-05-05T15:28:12.461Z,39.30
2023-05-05T15:30:39.749Z,39.60
2023-05-05T15:33:06.690Z,40.00
2023-05-05T15:35:33.641Z,40.40
2023-05-05T15:38:00.604Z,40.80
2023-05-05T15:40:27.532Z,41.50
2023-05-05T15:42:57.247Z,42.10
2023-05-05T15:45:24.410Z,42.60
2023-05-05T15:47:52.752Z,43.10
2023-05-05T15:50:20.015Z,43.50
2023-05-05T15:52:50.137Z,44.00
2023-05-05T15:55:17.457Z,44.10
2023-05-05T15:57:44.428Z,43.90
2023-05-05T16:00:12.118Z,43.90
2023-05-05T16:02:39.683Z,43.70
2023-05-05T16:05:09.896Z,43.80
2023-05-05T16:07:40.156Z,43.90
2023-05-05T16:10:10.639Z,43.80
2023-05-05T16:12:40.123Z,43.80
2023-05-05T16:15:10.518Z,43.80
2023-05-05T16:17:37.990Z,44.10
2023-05-05T16:20:05.750Z,44.20
2023-05-05T16:22:32.703Z,44.40
2023-05-05T16:24:59.617Z,44.70
2023-05-05T16:27:27.152Z,44.70
2023-05-05T16:29:58.463Z,45.00
2023-05-05T16:32:26.513Z,45.20
2023-05-05T16:34:56.549Z,45.50
2023-05-05T16:37:23.455Z,45.80
2023-05-05T16:39:50.381Z,46.00
2023-05-05T16:42:20.232Z,46.20
2023-05-05T16:44:47.133Z,46.50
2023-05-05T16:47:14.016Z,46.80
2023-05-05T16:49:41.014Z,47.00
2023-05-05T16:52:12.505Z,47.20
2023-05-05T16:54:39.246Z,47.50
2023-05-05T16:57:08.393Z,47.60
2023-05-05T16:59:35.960Z,47.50
2023-05-05T17:02:05.415Z,47.70
2023-05-05T17:04:32.472Z,48.00
2023-05-05T17:07:04.206Z,48.30
2023-05-05T17:09:33.234Z,48.50
2023-05-05T17:12:04.096Z,48.70
2023-05-05T17:14:31.500Z,48.90
2023-05-05T17:17:00.922Z,49.10
2023-05-05T17:19:27.770Z,49.20
2023-05-05T17:21:55.173Z,49.30
2023-05-05T17:24:24.587Z,49.40
2023-05-05T17:26:53.578Z,49.50
2023-05-05T17:29:21.596Z,49.60
2023-05-05T17:31:54.175Z,49.90
2023-05-05T17:34:25.960Z,49.90
2023-05-05T17:36:52.867Z,49.90
2023-05-05T17:39:19.978Z,49.90
2023-05-05T17:41:46.828Z,50.10
2023-05-05T17:44:13.787Z,50.20
2023-05-05T17:46:40.750Z,50.20
2023-05-05T17:49:09.805Z,50.30
2023-05-05T17:51:36.724Z,50.50
2023-05-05T17:54:03.729Z,50.50
2023-05-05T17:56:30.619Z,50.50
2023-05-05T17:58:57.542Z,50.50
2023-05-05T18:01:26.718Z,50.60
2023-05-05T18:03:54.118Z,50.60
2023-05-05T18:06:29.301Z,50.70
2023-05-05T18:09:01.122Z,50.80
2023-05-05T18:11:31.008Z,50.80
2023-05-05T18:13:58.114Z,50.80
2023-05-05T18:16:25.115Z,50.90
2023-05-05T18:18:52.067Z,51.00
2023-05-05T18:21:19.013Z,51.10
2023-05-05T18:23:46.087Z,51.20
2023-05-05T18:26:15.539Z,51.30
2023-05-05T18:28:42.433Z,51.40
2023-05-05T18:31:11.929Z,51.50
2023-05-05T18:33:41.409Z,51.60
2023-05-05T18:36:13.150Z,51.70
2023-05-05T18:38:40.057Z,51.70
2023-05-05T18:41:07.122Z,51.80
2023-05-05T18:43:34.026Z,51.80
2023-05-05T18:46:01.061Z,51.90
2023-05-05T18:48:30.551Z,52.00
2023-05-05T18:51:04.611Z,52.00
2023-05-05T18:53:35.654Z,52.20
2023-05-05T18:56:05.047Z,52.10
2023-05-05T18:58:34.911Z,52.20
2023-05-05T19:01:04.504Z,52.20
2023-05-05T19:03:31.417Z,52.30
2023-05-05T19:05:58.300Z,52.30
2023-05-05T19:08:27.634Z,52.40
2023-05-05T19:10:54.471Z,52.50
2023-05-05T19:13:23.577Z,52.50
2023-05-05T19:15:51.583Z,52.50
2023-05-05T19:18:18.463Z,52.50
2023-05-05T19:20:45.347Z,52.50
2023-05-05T19:23:17.143Z,52.50
2023-05-05T19:25:44.492Z,52.60
2023-05-05T19:28:13.626Z,52.50
2023-05-05T19:30:40.455Z,52.60
2023-05-05T19:33:07.379Z,52.60
2023-05-05T19:35:34.496Z,52.60
2023-05-05T19:38:01.396Z,52.60
2023-05-05T19:40:28.304Z,52.70
2023-05-05T19:42:55.164Z,52.70
2023-05-05T19:45:22.061Z,52.70
2023-05-05T19:47:49.087Z,52.70
2023-05-05T19:50:20.572Z,52.70
2023-05-05T19:52:50.062Z,52.70
2023-05-05T19:55:18.806Z,52.80
2023-05-05T19:57:47.893Z,52.60
2023-05-05T20:00:15.408Z,52.70
2023-05-05T20:02:45.332Z,52.70
2023-05-05T20:05:16.403Z,53.30
2023-05-05T20:07:46.981Z,52.60
2023-05-05T20:10:14.282Z,52.60
2023-05-05T20:12:47.649Z,52.60
2023-05-05T20:15:19.756Z,52.60
2023-05-05T20:17:48.191Z,52.60
2023-05-05T20:20:20.955Z,52.60
2023-05-05T20:22:53.477Z,52.70
2023-05-05T20:25:20.465Z,52.70
2023-05-05T20:27:47.350Z,52.70
2023-05-05T20:30:16.733Z,52.70
2023-05-05T20:32:43.662Z,52.70
2023-05-05T20:35:12.730Z,52.70
2023-05-05T20:37:39.747Z,52.80
2023-05-05T20:40:08.222Z,52.80
2023-05-05T20:42:35.442Z,52.80
2023-05-05T20:45:02.503Z,52.70
2023-05-05T20:47:29.546Z,52.70
2023-05-05T20:49:56.509Z,52.70
2023-05-05T20:52:23.336Z,52.70
2023-05-05T20:54:50.159Z,52.70
2023-05-05T20:57:17.015Z,52.70
2023-05-05T20:59:43.936Z,52.70
2023-05-05T21:02:10.975Z,52.70
2023-05-05T21:04:42.463Z,52.80
2023-05-05T21:07:11.620Z,52.90
2023-05-05T21:09:38.434Z,53.00
2023-05-05T21:12:06.180Z,52.80
2023-05-05T21:14:37.825Z,52.90
2023-05-05T21:17:04.842Z,52.90
2023-05-05T21:19:33.904Z,52.90
2023-05-05T21:22:03.352Z,52.90
2023-05-05T21:24:30.585Z,53.00
2023-05-05T21:26:57.576Z,53.00
2023-05-05T21:29:24.698Z,53.10
2023-05-05T21:31:51.551Z,53.10
2023-05-05T21:34:18.675Z,53.20
2023-05-05T21:36:45.716Z,53.30
2023-05-05T21:39:12.552Z,53.30
2023-05-05T21:41:39.419Z,53.30
2023-05-05T21:44:08.474Z,53.40
2023-05-05T21:46:35.534Z,53.40
2023-05-05T21:49:15.715Z,53.40
2023-05-05T21:51:44.215Z,53.70
2023-05-05T21:54:11.221Z,53.50
2023-05-05T21:56:38.409Z,53.60
2023-05-05T21:59:06.139Z,53.60
2023-05-05T22:01:33.410Z,53.60
2023-05-05T22:04:05.223Z,53.60
2023-05-05T22:06:32.536Z,53.70
2023-05-05T22:08:59.375Z,53.70
2023-05-05T22:11:26.385Z,53.70
2023-05-05T22:13:56.351Z,53.70
2023-05-05T22:16:27.906Z,53.80
2023-05-05T22:18:54.923Z,53.90
2023-05-05T22:21:23.987Z,53.90
2023-05-05T22:23:50.864Z,54.00
2023-05-05T22:26:20.678Z,54.00
2023-05-05T22:28:52.829Z,54.00
2023-05-05T22:31:19.716Z,54.00
2023-05-05T22:33:46.627Z,54.10
2023-05-05T22:36:14.233Z,54.20
2023-05-05T22:38:43.180Z,54.20
2023-05-05T22:41:10.031Z,54.30
2023-05-05T22:43:39.553Z,54.30
2023-05-05T22:46:06.447Z,54.40
2023-05-05T22:48:33.302Z,54.50
2023-05-05T22:51:00.146Z,54.50
2023-05-05T22:53:27.064Z,54.60
2023-05-05T22:55:54.089Z,54.60
2023-05-05T22:58:23.799Z,54.60
2023-05-05T23:00:50.703Z,54.70
2023-05-05T23:03:19.760Z,54.70
2023-05-05T23:05:49.072Z,54.70
2023-05-05T23:08:20.958Z,54.70
2023-05-05T23:10:50.333Z,54.80
2023-05-05T23:13:17.256Z,54.70
2023-05-05T23:15:44.289Z,54.80
2023-05-05T23:18:11.225Z,54.80
2023-05-05T23:20:38.120Z,54.80
2023-05-05T23:23:07.326Z,54.80
2023-05-05T23:25:34.270Z,54.80
2023-05-05T23:28:01.398Z,54.80
2023-05-05T23:30:28.391Z,54.80
2023-05-05T23:32:57.114Z,54.80
2023-05-05T23:35:27.317Z,54.80
2023-05-05T23:37:54.220Z,54.80
2023-05-05T23:40:23.783Z,54.80
2023-05-05T23:42:52.735Z,54.90
2023-05-05T23:45:19.733Z,55.00
2023-05-05T23:47:46.584Z,55.00
2023-05-05T23:50:13.459Z,55.00
2023-05-05T23:52:41.761Z,55.00
2023-05-05T23:55:10.254Z,55.20
2023-05-05T23:57:37.693Z,55.10
